createdAt,value
2022-10-30T00:00:56.976Z,405.96
2022-10-30T00:01:57.027Z,406.76
2022-10-30T00:02:57.500Z,404.63
2022-10-30T00:03:56.955Z,406.87
2022-10-30T00:04:56.927Z,406.26
2022-10-30T00:05:56.927Z,405.76
2022-10-30T00:06:56.926Z,409.92
2022-10-30T00:07:57.145Z,408.33
2022-10-30T00:08:56.948Z,404.97
2022-10-30T00:09:56.874Z,403.23
2022-10-30T00:10:56.857Z,407.69
2022-10-30T00:11:56.855Z,402.88
2022-10-30T00:12:56.841Z,405.32
2022-10-30T00:13:56.839Z,401.65
2022-10-30T00:14:56.834Z,405.44
2022-10-30T00:15:56.811Z,403.03
2022-10-30T00:16:56.794Z,412.22
2022-10-30T00:17:57.114Z,407.62
2022-10-30T00:18:56.799Z,408.98
2022-10-30T00:19:56.761Z,407.45
2022-10-30T00:20:56.776Z,410.68
2022-10-30T00:22:27.696Z,403.09
2022-10-30T00:23:27.678Z,409.93
2022-10-30T00:24:27.667Z,411.43
2022-10-30T00:25:27.662Z,400.72
2022-10-30T00:26:27.648Z,397.81
2022-10-30T00:27:27.642Z,406.93
2022-10-30T00:28:27.632Z,402.68
2022-10-30T00:29:27.614Z,398.55
2022-10-30T00:30:27.603Z,403.09
2022-10-30T00:31:27.623Z,407.96
2022-10-30T00:32:27.577Z,405.93
2022-10-30T00:33:27.570Z,403.86
2022-10-30T00:34:27.558Z,406.00
2022-10-30T00:35:28.282Z,401.99
2022-10-30T00:36:27.537Z,403.79
2022-10-30T00:37:27.554Z,404.21
2022-10-30T00:38:27.550Z,400.64
2022-10-30T00:39:27.503Z,407.53
2022-10-30T00:40:27.500Z,402.94
2022-10-30T00:41:27.486Z,410.85
2022-10-30T00:42:27.469Z,407.30
2022-10-30T00:43:27.492Z,404.31
2022-10-30T00:44:27.453Z,413.28
2022-10-30T00:45:27.448Z,408.18
2022-10-30T00:46:27.441Z,401.55
2022-10-30T00:47:27.419Z,401.31
2022-10-30T00:48:27.406Z,408.96
2022-10-30T00:49:27.407Z,401.60
2022-10-30T00:51:27.365Z,401.75
2022-10-30T00:52:27.353Z,407.18
2022-10-30T00:53:27.352Z,403.89
2022-10-30T00:54:27.355Z,406.01
2022-10-30T00:55:27.330Z,404.02
2022-10-30T00:56:27.323Z,396.92
2022-10-30T00:57:27.306Z,407.64
2022-10-30T00:58:27.293Z,405.70
2022-10-30T00:59:27.297Z,402.08
2022-10-30T01:00:27.272Z,405.46
2022-10-30T01:01:27.411Z,404.13
2022-10-30T01:02:27.416Z,404.55
2022-10-30T01:03:27.237Z,398.94
2022-10-30T01:04:29.993Z,404.96
2022-10-30T01:05:27.296Z,406.63
2022-10-30T01:06:27.197Z,403.28
2022-10-30T01:07:27.194Z,401.67
2022-10-30T01:08:27.224Z,401.34
2022-10-30T01:09:27.167Z,405.37
2022-10-30T01:10:27.169Z,407.19
2022-10-30T01:11:27.156Z,408.29
2022-10-30T01:12:27.145Z,406.86
2022-10-30T01:13:27.149Z,406.12
2022-10-30T01:14:27.114Z,402.08
2022-10-30T01:15:27.104Z,402.83
2022-10-30T01:16:27.100Z,409.87
2022-10-30T01:17:27.187Z,402.71
2022-10-30T01:18:27.069Z,399.97
2022-10-30T01:19:27.061Z,402.32
2022-10-30T01:20:27.042Z,407.34
2022-10-30T01:21:27.056Z,402.65
2022-10-30T01:22:27.022Z,406.41
2022-10-30T01:23:27.026Z,410.51
2022-10-30T01:24:27.003Z,405.48
2022-10-30T01:25:26.997Z,408.65
2022-10-30T01:26:26.986Z,411.03
2022-10-30T01:27:27.001Z,405.74
2022-10-30T01:28:26.973Z,411.31
2022-10-30T01:29:26.966Z,403.64
2022-10-30T01:30:26.978Z,400.66
2022-10-30T01:31:26.936Z,403.80
2022-10-30T01:32:26.920Z,404.36
2022-10-30T01:33:26.906Z,401.33
2022-10-30T01:34:26.943Z,407.21
2022-10-30T01:35:26.887Z,403.72
2022-10-30T01:36:26.874Z,404.23
2022-10-30T01:37:26.879Z,404.56
2022-10-30T01:38:26.849Z,410.42
2022-10-30T01:39:26.867Z,408.07
2022-10-30T01:40:26.885Z,402.38
2022-10-30T01:41:26.886Z,403.66
2022-10-30T01:42:26.803Z,407.21
2022-10-30T01:43:26.795Z,410.77
2022-10-30T01:44:26.781Z,408.70
2022-10-30T01:45:26.812Z,406.35
2022-10-30T01:46:26.772Z,404.49
2022-10-30T01:47:26.752Z,403.35
2022-10-30T01:48:26.737Z,407.29
2022-10-30T01:49:26.746Z,401.33
2022-10-30T01:50:26.717Z,404.91
2022-10-30T01:51:26.764Z,404.39
2022-10-30T01:52:26.708Z,400.68
2022-10-30T01:53:26.689Z,409.32
2022-10-30T01:54:26.673Z,405.20
2022-10-30T01:55:26.668Z,401.22
2022-10-30T01:56:26.651Z,404.99
2022-10-30T01:57:26.646Z,407.07
2022-10-30T01:58:26.618Z,405.57
2022-10-30T01:59:26.606Z,405.44
2022-10-30T02:00:26.604Z,405.81
2022-10-30T02:01:26.690Z,404.34
2022-10-30T02:02:26.818Z,403.63
2022-10-30T02:03:26.592Z,401.32
2022-10-30T02:04:26.561Z,402.29
2022-10-30T02:05:26.556Z,402.60
2022-10-30T02:06:26.541Z,402.17
2022-10-30T02:07:26.554Z,403.93
2022-10-30T02:08:26.660Z,405.82
2022-10-30T02:09:26.496Z,407.20
2022-10-30T02:10:26.516Z,402.72
2022-10-30T02:11:26.483Z,401.10
2022-10-30T02:12:26.465Z,406.37
2022-10-30T02:13:26.501Z,401.19
2022-10-30T02:14:26.459Z,401.28
2022-10-30T02:15:26.450Z,404.58
2022-10-30T02:16:26.427Z,403.72
2022-10-30T02:17:26.417Z,405.28
2022-10-30T02:18:26.439Z,408.77
2022-10-30T02:19:26.393Z,410.16
2022-10-30T02:20:26.379Z,408.96
2022-10-30T02:21:26.369Z,402.51
2022-10-30T02:22:26.420Z,406.00
2022-10-30T02:23:26.354Z,401.67
2022-10-30T02:24:26.333Z,402.75
2022-10-30T02:25:26.336Z,410.14
2022-10-30T02:26:26.322Z,400.73
2022-10-30T02:27:26.299Z,409.58
2022-10-30T02:28:26.307Z,399.52
2022-10-30T02:29:26.285Z,400.08
2022-10-30T02:30:26.273Z,403.42
2022-10-30T02:31:26.281Z,406.82
2022-10-30T02:32:26.249Z,406.22
2022-10-30T02:33:26.243Z,401.58
2022-10-30T02:34:26.238Z,406.60
2022-10-30T02:35:26.227Z,399.99
2022-10-30T02:36:26.204Z,403.27
2022-10-30T02:37:26.200Z,409.00
2022-10-30T02:38:26.183Z,401.46
2022-10-30T02:39:26.203Z,403.62
2022-10-30T02:40:26.163Z,401.56
2022-10-30T02:41:26.162Z,403.25
2022-10-30T02:42:26.138Z,401.83
2022-10-30T02:43:26.129Z,403.37
2022-10-30T02:44:26.112Z,404.21
2022-10-30T02:45:26.130Z,403.44
2022-10-30T02:46:26.088Z,399.61
2022-10-30T02:47:26.084Z,402.23
2022-10-30T02:48:26.073Z,404.88
2022-10-30T02:49:26.060Z,407.08
2022-10-30T02:50:26.061Z,403.39
2022-10-30T02:51:26.038Z,406.04
2022-10-30T02:52:26.048Z,404.02
2022-10-30T02:53:26.016Z,409.25
2022-10-30T02:54:25.996Z,402.64
2022-10-30T02:55:26.002Z,400.07
2022-10-30T02:56:25.977Z,400.43
2022-10-30T02:57:25.973Z,404.85
2022-10-30T02:58:25.962Z,404.26
2022-10-30T02:59:25.984Z,406.29
2022-10-30T03:00:25.957Z,408.09
2022-10-30T03:01:26.031Z,406.46
2022-10-30T03:02:25.960Z,408.16
2022-10-30T03:03:25.901Z,403.62
2022-10-30T03:04:25.898Z,406.60
2022-10-30T03:05:25.885Z,406.22
2022-10-30T03:06:25.886Z,404.25
2022-10-30T03:07:25.866Z,406.13
2022-10-30T03:08:25.866Z,403.39
2022-10-30T03:09:25.863Z,403.82
2022-10-30T03:10:25.820Z,402.32
2022-10-30T03:11:25.823Z,400.59
2022-10-30T03:12:25.827Z,404.66
2022-10-30T03:13:25.795Z,401.67
2022-10-30T03:14:25.788Z,408.82
2022-10-30T03:15:25.768Z,400.76
2022-10-30T03:16:25.763Z,405.05
2022-10-30T03:17:25.806Z,403.95
2022-10-30T03:18:25.734Z,407.14
2022-10-30T03:19:25.721Z,402.88
2022-10-30T03:20:25.711Z,403.75
2022-10-30T03:21:25.714Z,400.36
2022-10-30T03:22:25.710Z,404.36
2022-10-30T03:23:25.682Z,406.00
2022-10-30T03:24:25.661Z,406.34
2022-10-30T03:25:25.657Z,403.29
2022-10-30T03:26:25.653Z,406.52
2022-10-30T03:27:25.646Z,404.94
2022-10-30T03:28:25.639Z,404.10
2022-10-30T03:29:25.609Z,401.82
2022-10-30T03:30:25.605Z,404.41
2022-10-30T03:31:25.607Z,403.75
2022-10-30T03:33:25.586Z,397.86
2022-10-30T03:34:25.564Z,400.74
2022-10-30T03:35:25.543Z,401.74
2022-10-30T03:36:25.528Z,402.43
2022-10-30T03:37:25.534Z,403.89
2022-10-30T03:38:25.516Z,402.87
2022-10-30T03:39:25.505Z,401.05
2022-10-30T03:40:25.499Z,403.20
2022-10-30T03:41:25.479Z,402.09
2022-10-30T03:42:25.465Z,404.16
2022-10-30T03:43:25.456Z,402.86
2022-10-30T03:44:25.458Z,402.88
2022-10-30T03:45:25.465Z,401.65
2022-10-30T03:46:25.429Z,406.34
2022-10-30T03:47:25.413Z,404.75
2022-10-30T03:48:26.371Z,404.20
2022-10-30T03:49:25.394Z,402.84
2022-10-30T03:50:25.390Z,401.92
2022-10-30T03:51:25.385Z,405.60
2022-10-30T03:52:25.355Z,404.74
2022-10-30T03:53:25.347Z,403.37
2022-10-30T03:54:25.338Z,400.93
2022-10-30T03:55:25.323Z,408.63
2022-10-30T03:56:25.331Z,409.43
2022-10-30T03:57:25.304Z,407.53
2022-10-30T03:58:25.290Z,404.38
2022-10-30T03:59:25.276Z,399.71
2022-10-30T04:00:25.278Z,408.46
2022-10-30T04:01:25.412Z,401.46
2022-10-30T04:02:25.276Z,408.43
2022-10-30T04:03:25.248Z,404.47
2022-10-30T04:04:25.220Z,407.12
2022-10-30T04:05:25.213Z,405.53
2022-10-30T04:06:25.209Z,405.59
2022-10-30T04:07:25.197Z,402.82
2022-10-30T04:08:25.186Z,402.45
2022-10-30T04:09:25.179Z,396.63
2022-10-30T04:10:25.166Z,398.07
2022-10-30T04:11:25.222Z,398.81
2022-10-30T04:12:25.136Z,403.78
2022-10-30T04:13:25.131Z,403.01
2022-10-30T04:14:25.157Z,397.91
2022-10-30T04:15:25.096Z,401.68
2022-10-30T04:16:25.088Z,401.15
2022-10-30T04:17:25.074Z,401.04
2022-10-30T04:18:25.117Z,399.78
2022-10-30T04:19:25.430Z,397.85
2022-10-30T04:20:25.052Z,399.88
2022-10-30T04:21:25.030Z,398.93
2022-10-30T04:22:25.024Z,399.89
2022-10-30T04:23:25.016Z,394.93
2022-10-30T04:24:25.007Z,397.55
2022-10-30T04:25:25.009Z,396.49
2022-10-30T04:26:24.991Z,399.57
2022-10-30T04:27:24.967Z,397.53
2022-10-30T04:28:24.960Z,396.33
2022-10-30T04:29:24.970Z,395.23
2022-10-30T04:30:24.941Z,396.07
2022-10-30T04:31:24.932Z,398.97
2022-10-30T04:32:24.908Z,398.61
2022-10-30T04:33:24.894Z,395.79
2022-10-30T04:34:24.883Z,393.96
2022-10-30T04:35:24.902Z,396.02
2022-10-30T04:36:24.870Z,396.94
2022-10-30T04:37:24.886Z,398.95
2022-10-30T04:38:24.867Z,398.68
2022-10-30T04:39:24.835Z,398.02
2022-10-30T04:40:24.830Z,399.88
2022-10-30T04:41:24.830Z,395.31
2022-10-30T04:42:24.818Z,396.28
2022-10-30T04:43:24.790Z,399.65
2022-10-30T04:44:24.800Z,399.72
2022-10-30T04:45:24.808Z,396.44
2022-10-30T04:46:24.831Z,399.79
2022-10-30T04:47:24.825Z,400.55
2022-10-30T04:48:24.751Z,400.85
2022-10-30T04:49:24.721Z,398.95
2022-10-30T04:50:24.715Z,400.95
2022-10-30T04:51:24.700Z,398.52
2022-10-30T04:52:24.713Z,399.75
2022-10-30T04:53:24.687Z,398.58
2022-10-30T04:54:24.668Z,399.36
2022-10-30T04:55:24.658Z,397.05
2022-10-30T04:56:24.644Z,399.45
2022-10-30T04:57:24.637Z,396.80
2022-10-30T04:58:24.644Z,398.60
2022-10-30T04:59:24.612Z,398.07
2022-10-30T05:00:24.604Z,398.54
2022-10-30T05:01:24.669Z,400.70
2022-10-30T05:02:24.775Z,398.16
2022-10-30T05:03:24.566Z,398.45
2022-10-30T05:04:24.579Z,394.50
2022-10-30T05:05:24.562Z,400.42
2022-10-30T05:06:24.592Z,402.30
2022-10-30T05:07:24.556Z,395.76
2022-10-30T05:08:24.551Z,399.61
2022-10-30T05:09:24.517Z,396.56
2022-10-30T05:10:24.490Z,400.37
2022-10-30T05:11:24.473Z,398.47
2022-10-30T05:12:24.476Z,399.56
2022-10-30T05:13:24.451Z,397.57
2022-10-30T05:14:24.487Z,401.46
2022-10-30T05:15:24.430Z,398.75
2022-10-30T05:16:24.426Z,399.06
2022-10-30T05:17:24.433Z,396.45
2022-10-30T05:18:24.410Z,398.46
2022-10-30T05:19:24.432Z,400.08
2022-10-30T05:20:24.379Z,398.38
2022-10-30T05:21:24.399Z,398.23
2022-10-30T05:22:24.371Z,402.03
2022-10-30T05:23:24.349Z,403.58
2022-10-30T05:24:24.349Z,401.09
2022-10-30T05:25:24.360Z,403.94
2022-10-30T05:26:24.305Z,397.29
2022-10-30T05:27:24.325Z,397.52
2022-10-30T05:28:24.284Z,410.37
2022-10-30T05:29:24.271Z,401.69
2022-10-30T05:30:24.264Z,402.41
2022-10-30T05:31:24.263Z,402.90
2022-10-30T05:32:24.248Z,396.30
2022-10-30T05:33:24.261Z,401.04
2022-10-30T05:34:24.239Z,405.03
2022-10-30T05:35:24.215Z,401.73
2022-10-30T05:36:24.210Z,402.87
2022-10-30T05:37:24.185Z,402.01
2022-10-30T05:38:24.180Z,399.73
2022-10-30T05:39:24.177Z,399.45
2022-10-30T05:40:24.158Z,407.49
2022-10-30T05:41:24.144Z,407.23
2022-10-30T05:42:24.130Z,406.87
2022-10-30T05:43:24.123Z,402.46
2022-10-30T05:44:34.666Z,403.29
2022-10-30T05:45:25.109Z,399.14
2022-10-30T05:46:24.101Z,398.61
2022-10-30T05:47:24.091Z,400.61
2022-10-30T05:48:24.059Z,396.37
2022-10-30T05:49:24.058Z,398.39
2022-10-30T05:50:24.043Z,396.31
2022-10-30T05:51:24.049Z,396.31
2022-10-30T05:52:24.026Z,399.66
2022-10-30T05:53:24.006Z,400.60
2022-10-30T05:54:24.001Z,401.07
2022-10-30T05:55:23.987Z,407.17
2022-10-30T05:56:24.021Z,406.09
2022-10-30T05:57:23.969Z,406.56
2022-10-30T05:58:23.970Z,404.60
2022-10-30T05:59:23.939Z,406.34
2022-10-30T06:00:23.934Z,394.88
2022-10-30T06:01:25.066Z,401.23
2022-10-30T06:02:23.980Z,395.43
2022-10-30T06:03:23.901Z,396.29
2022-10-30T06:04:23.902Z,395.81
2022-10-30T06:05:23.872Z,404.37
2022-10-30T06:06:23.874Z,406.41
2022-10-30T06:07:23.841Z,400.86
2022-10-30T06:08:23.864Z,400.77
2022-10-30T06:09:23.839Z,401.48
2022-10-30T06:10:23.813Z,401.11
2022-10-30T06:11:23.808Z,400.72
2022-10-30T06:12:23.800Z,400.68
2022-10-30T06:13:23.804Z,393.31
2022-10-30T06:14:23.788Z,402.10
2022-10-30T06:15:23.772Z,394.33
2022-10-30T06:16:23.821Z,400.09
2022-10-30T06:17:23.740Z,396.09
2022-10-30T06:18:23.815Z,395.51
2022-10-30T06:19:23.719Z,397.58
2022-10-30T06:20:23.703Z,402.23
2022-10-30T06:21:23.694Z,399.43
2022-10-30T06:22:23.685Z,400.31
2022-10-30T06:23:23.668Z,401.78
2022-10-30T06:24:23.678Z,403.76
2022-10-30T06:25:23.651Z,405.63
2022-10-30T06:26:23.638Z,399.21
2022-10-30T06:27:23.631Z,401.17
2022-10-30T06:28:23.688Z,399.89
2022-10-30T06:29:23.605Z,398.90
2022-10-30T06:30:23.627Z,402.49
2022-10-30T06:31:23.655Z,402.53
2022-10-30T06:32:23.571Z,401.21
2022-10-30T06:33:23.561Z,402.48
2022-10-30T06:34:23.559Z,401.07
2022-10-30T06:35:23.545Z,403.05
2022-10-30T06:36:23.532Z,401.02
2022-10-30T06:37:23.577Z,399.40
2022-10-30T06:38:23.518Z,400.26
2022-10-30T06:39:23.496Z,400.71
2022-10-30T06:40:23.504Z,406.27
2022-10-30T06:41:26.097Z,401.18
2022-10-30T06:42:24.465Z,403.34
2022-10-30T06:43:23.452Z,405.07
2022-10-30T06:44:23.542Z,399.72
2022-10-30T06:45:23.448Z,402.13
2022-10-30T06:46:27.020Z,399.74
2022-10-30T06:47:24.431Z,400.92
2022-10-30T06:48:23.408Z,409.06
2022-10-30T06:49:23.401Z,402.27
2022-10-30T06:50:23.408Z,404.97
2022-10-30T06:51:23.371Z,409.45
2022-10-30T06:52:23.345Z,401.84
2022-10-30T06:53:23.386Z,405.53
2022-10-30T06:54:23.348Z,402.87
2022-10-30T06:55:23.318Z,402.32
2022-10-30T06:56:23.368Z,402.92
2022-10-30T06:57:23.287Z,405.74
2022-10-30T06:58:23.309Z,401.30
2022-10-30T06:59:23.270Z,399.82
2022-10-30T07:00:23.264Z,398.08
2022-10-30T07:01:23.336Z,403.65
2022-10-30T07:02:23.334Z,399.88
2022-10-30T07:03:23.229Z,399.21
2022-10-30T07:04:23.219Z,398.55
2022-10-30T07:05:23.211Z,401.20
2022-10-30T07:06:23.199Z,401.21
2022-10-30T07:07:23.193Z,397.94
2022-10-30T07:08:23.202Z,403.98
2022-10-30T07:09:23.160Z,399.10
2022-10-30T07:10:23.148Z,396.49
2022-10-30T07:11:23.944Z,402.57
2022-10-30T07:12:23.138Z,401.28
2022-10-30T07:13:23.109Z,400.35
2022-10-30T07:14:23.135Z,397.21
2022-10-30T07:15:23.088Z,397.48
2022-10-30T07:16:23.088Z,400.57
2022-10-30T07:17:23.068Z,404.19
2022-10-30T07:18:23.066Z,398.76
2022-10-30T07:19:23.093Z,401.95
2022-10-30T07:20:23.039Z,397.82
2022-10-30T07:21:23.037Z,395.92
2022-10-30T07:22:23.021Z,397.77
2022-10-30T07:23:23.017Z,402.07
2022-10-30T07:24:23.006Z,395.84
2022-10-30T07:25:22.980Z,400.27
2022-10-30T07:26:23.008Z,398.61
2022-10-30T07:27:22.968Z,398.38
2022-10-30T07:28:22.952Z,399.43
2022-10-30T07:29:22.935Z,397.86
2022-10-30T07:30:23.008Z,400.12
2022-10-30T07:31:34.962Z,401.48
2022-10-30T07:32:23.911Z,400.14
2022-10-30T07:33:22.902Z,402.17
2022-10-30T07:34:22.883Z,399.67
2022-10-30T07:35:22.873Z,400.64
2022-10-30T07:36:22.881Z,397.20
2022-10-30T07:37:22.845Z,398.12
2022-10-30T07:38:22.868Z,396.41
2022-10-30T07:39:22.845Z,393.83
2022-10-30T07:40:22.835Z,394.58
2022-10-30T07:41:22.806Z,397.19
2022-10-30T07:42:22.811Z,392.81
2022-10-30T07:43:22.817Z,388.56
2022-10-30T07:44:22.772Z,398.66
2022-10-30T07:45:22.763Z,394.95
2022-10-30T07:46:22.746Z,384.43
2022-10-30T07:47:22.745Z,391.82
2022-10-30T07:48:22.724Z,385.39
2022-10-30T07:49:22.724Z,386.26
2022-10-30T07:50:22.703Z,384.21
2022-10-30T07:51:22.735Z,390.49
2022-10-30T07:52:22.706Z,385.68
2022-10-30T07:53:22.688Z,385.03
2022-10-30T07:54:22.657Z,392.11
2022-10-30T07:55:22.656Z,390.04
2022-10-30T07:56:22.636Z,383.09
2022-10-30T07:57:22.644Z,390.23
2022-10-30T07:58:22.620Z,371.53
2022-10-30T07:59:22.606Z,390.66
2022-10-30T08:00:22.585Z,382.12
2022-10-30T08:01:22.829Z,387.47
2022-10-30T08:02:22.705Z,385.02
2022-10-30T08:03:22.558Z,388.80
2022-10-30T08:04:22.560Z,380.14
2022-10-30T08:05:27.101Z,384.66
2022-10-30T08:06:26.378Z,385.84
2022-10-30T08:07:22.505Z,384.24
2022-10-30T08:08:22.516Z,378.30
2022-10-30T08:09:22.487Z,367.29
2022-10-30T08:10:22.487Z,378.87
2022-10-30T08:11:22.512Z,381.46
2022-10-30T08:12:22.459Z,384.32
2022-10-30T08:13:22.449Z,381.17
2022-10-30T08:14:22.471Z,380.27
2022-10-30T08:15:22.424Z,380.95
2022-10-30T08:16:22.428Z,382.31
2022-10-30T08:17:22.406Z,380.64
2022-10-30T08:18:22.397Z,381.92
2022-10-30T08:19:22.387Z,384.34
2022-10-30T08:20:22.382Z,387.64
2022-10-30T08:21:22.359Z,386.46
2022-10-30T08:22:22.501Z,384.32
2022-10-30T08:23:22.331Z,386.89
2022-10-30T08:24:22.352Z,384.67
2022-10-30T08:25:22.307Z,390.33
2022-10-30T08:26:22.305Z,389.41
2022-10-30T08:27:22.312Z,384.23
2022-10-30T08:28:22.285Z,382.51
2022-10-30T08:29:22.269Z,374.82
2022-10-30T08:30:22.320Z,388.89
2022-10-30T08:31:22.245Z,388.33
2022-10-30T08:32:22.229Z,382.08
2022-10-30T08:33:22.972Z,388.82
2022-10-30T08:34:22.214Z,391.14
2022-10-30T08:35:22.231Z,378.70
2022-10-30T08:36:22.188Z,383.62
2022-10-30T08:37:22.184Z,383.38
2022-10-30T08:38:22.188Z,386.74
2022-10-30T08:39:22.164Z,368.55
2022-10-30T08:40:22.148Z,382.21
2022-10-30T08:41:22.139Z,384.47
2022-10-30T08:42:22.142Z,383.27
2022-10-30T08:43:22.135Z,380.91
2022-10-30T08:44:22.112Z,379.61
2022-10-30T08:45:26.539Z,375.46
2022-10-30T08:46:23.075Z,371.64
2022-10-30T08:47:22.069Z,377.92
2022-10-30T08:48:22.060Z,376.93
2022-10-30T08:49:22.057Z,367.23
2022-10-30T08:51:22.020Z,374.38
2022-10-30T08:52:22.918Z,370.59
2022-10-30T08:53:22.003Z,372.79
2022-10-30T08:54:22.017Z,369.33
2022-10-30T08:55:21.993Z,374.36
2022-10-30T08:56:21.976Z,357.70
2022-10-30T08:57:21.961Z,372.96
2022-10-30T08:58:21.946Z,373.00
2022-10-30T08:59:21.951Z,370.36
2022-10-30T09:00:21.922Z,369.82
2022-10-30T09:01:22.044Z,377.71
2022-10-30T09:02:22.016Z,359.73
2022-10-30T09:03:21.914Z,370.94
2022-10-30T09:04:21.880Z,369.71
2022-10-30T09:05:21.896Z,363.70
2022-10-30T09:06:21.865Z,366.92
2022-10-30T09:07:21.857Z,351.02
2022-10-30T09:08:21.842Z,352.47
2022-10-30T09:09:21.827Z,372.35
2022-10-30T09:10:21.828Z,369.10
2022-10-30T09:11:21.814Z,363.27
2022-10-30T09:12:21.791Z,352.99
2022-10-30T09:13:21.783Z,357.86
2022-10-30T09:14:21.771Z,359.38
2022-10-30T09:15:21.762Z,357.47
2022-10-30T09:16:21.755Z,365.53
2022-10-30T09:17:22.483Z,361.05
2022-10-30T09:18:21.731Z,372.17
2022-10-30T09:19:21.720Z,367.74
2022-10-30T09:20:21.712Z,372.22
2022-10-30T09:21:21.739Z,367.59
2022-10-30T09:22:21.721Z,369.73
2022-10-30T09:23:21.670Z,364.86
2022-10-30T09:24:21.674Z,366.93
2022-10-30T09:25:21.687Z,359.65
2022-10-30T09:26:21.648Z,376.74
2022-10-30T09:27:21.651Z,362.55
2022-10-30T09:28:21.619Z,368.55
2022-10-30T09:29:21.605Z,374.58
2022-10-30T09:30:21.590Z,364.18
2022-10-30T09:31:21.582Z,356.32
2022-10-30T09:32:21.590Z,364.02
2022-10-30T09:33:21.582Z,361.53
2022-10-30T09:34:21.639Z,373.57
2022-10-30T09:35:21.540Z,354.78
2022-10-30T09:36:22.382Z,365.20
2022-10-30T09:37:21.561Z,376.07
2022-10-30T09:38:21.520Z,377.47
2022-10-30T09:39:21.511Z,375.87
2022-10-30T09:40:21.511Z,354.17
2022-10-30T09:41:21.476Z,360.14
2022-10-30T09:42:21.476Z,372.99
2022-10-30T09:43:21.463Z,368.80
2022-10-30T09:44:21.441Z,377.14
2022-10-30T09:45:29.172Z,372.40
2022-10-30T09:46:22.424Z,362.36
2022-10-30T09:47:23.552Z,378.37
2022-10-30T09:48:21.406Z,374.00
2022-10-30T09:49:21.399Z,364.16
2022-10-30T09:50:21.381Z,357.85
2022-10-30T09:51:21.386Z,378.15
2022-10-30T09:52:21.357Z,366.70
2022-10-30T09:53:21.354Z,387.77
2022-10-30T09:54:21.357Z,379.02
2022-10-30T09:55:21.331Z,374.78
2022-10-30T09:56:21.309Z,373.09
2022-10-30T09:57:21.308Z,374.21
2022-10-30T09:58:21.289Z,374.21
2022-10-30T09:59:21.288Z,383.34
2022-10-30T10:00:21.274Z,381.44
2022-10-30T10:01:21.376Z,372.91
2022-10-30T10:02:21.448Z,384.70
2022-10-30T10:03:21.245Z,381.88
2022-10-30T10:04:23.945Z,384.00
2022-10-30T10:05:22.246Z,370.62
2022-10-30T10:06:21.204Z,388.39
2022-10-30T10:07:21.196Z,381.89
2022-10-30T10:08:21.177Z,384.86
2022-10-30T10:09:21.166Z,383.96
2022-10-30T10:10:21.230Z,387.81
2022-10-30T10:11:21.147Z,367.35
2022-10-30T10:12:21.128Z,378.10
2022-10-30T10:13:21.138Z,391.81
2022-10-30T10:14:21.115Z,396.89
2022-10-30T10:15:21.118Z,389.06
2022-10-30T10:16:21.113Z,364.63
2022-10-30T10:17:21.086Z,372.62
2022-10-30T10:18:21.142Z,394.41
2022-10-30T10:19:21.071Z,385.74
2022-10-30T10:20:21.103Z,385.92
2022-10-30T10:21:21.042Z,392.95
2022-10-30T10:22:21.035Z,408.36
2022-10-30T10:23:21.025Z,394.68
2022-10-30T10:24:21.002Z,386.04
2022-10-30T10:25:21.006Z,409.42
2022-10-30T10:26:20.986Z,406.41
2022-10-30T10:27:20.985Z,391.87
2022-10-30T10:28:21.612Z,384.02
2022-10-30T10:29:20.965Z,418.69
2022-10-30T10:30:21.066Z,401.62
2022-10-30T10:31:20.932Z,397.66
2022-10-30T10:32:20.916Z,395.05
2022-10-30T10:34:20.884Z,398.21
2022-10-30T10:35:20.873Z,404.49
2022-10-30T10:36:20.870Z,393.89
2022-10-30T10:37:20.873Z,422.10
2022-10-30T10:38:20.842Z,403.40
2022-10-30T10:39:20.838Z,379.63
2022-10-30T10:40:20.863Z,411.80
2022-10-30T10:41:20.819Z,409.35
2022-10-30T10:42:20.813Z,411.74
2022-10-30T10:43:20.802Z,375.15
2022-10-30T10:44:20.798Z,405.59
2022-10-30T10:45:20.767Z,400.48
2022-10-30T10:46:20.755Z,412.14
2022-10-30T10:47:20.741Z,422.96
2022-10-30T10:48:20.741Z,390.64
2022-10-30T10:49:20.744Z,379.62
2022-10-30T10:50:20.783Z,404.55
2022-10-30T10:51:20.707Z,423.60
2022-10-30T10:52:20.708Z,386.04
2022-10-30T10:53:20.682Z,390.13
2022-10-30T10:54:20.679Z,416.53
2022-10-30T10:55:20.687Z,421.22
2022-10-30T10:56:20.653Z,395.10
2022-10-30T10:57:20.651Z,407.30
2022-10-30T10:58:20.631Z,398.62
2022-10-30T10:59:20.629Z,408.09
2022-10-30T11:00:20.727Z,399.09
2022-10-30T11:01:20.714Z,385.86
2022-10-30T11:02:20.810Z,411.33
2022-10-30T11:03:20.576Z,412.37
2022-10-30T11:04:20.569Z,402.25
2022-10-30T11:05:21.055Z,400.85
2022-10-30T11:06:20.550Z,427.27
2022-10-30T11:07:20.531Z,370.12
2022-10-30T11:08:20.523Z,372.62
2022-10-30T11:09:20.514Z,414.00
2022-10-30T11:10:20.631Z,415.70
2022-10-30T11:11:20.512Z,394.85
2022-10-30T11:12:20.470Z,416.17
2022-10-30T11:13:20.466Z,412.98
2022-10-30T11:14:20.456Z,397.17
2022-10-30T11:15:20.458Z,398.76
2022-10-30T11:16:20.437Z,398.43
2022-10-30T11:17:20.424Z,395.16
2022-10-30T11:18:20.437Z,411.52
2022-10-30T11:19:20.417Z,401.71
2022-10-30T11:20:20.462Z,397.66
2022-10-30T11:21:20.382Z,393.47
2022-10-30T11:22:20.364Z,394.84
2022-10-30T11:23:20.374Z,412.87
2022-10-30T11:24:20.357Z,408.70
2022-10-30T11:25:20.341Z,400.50
2022-10-30T11:26:20.353Z,398.91
2022-10-30T11:27:20.332Z,414.32
2022-10-30T11:28:20.311Z,401.62
2022-10-30T11:29:20.295Z,392.98
2022-10-30T11:30:20.483Z,384.64
2022-10-30T11:31:20.270Z,391.48
2022-10-30T11:32:20.279Z,408.42
2022-10-30T11:33:20.247Z,416.48
2022-10-30T11:34:20.240Z,393.40
2022-10-30T11:35:20.234Z,408.84
2022-10-30T11:36:20.215Z,400.87
2022-10-30T11:37:20.220Z,396.27
2022-10-30T11:38:20.208Z,403.43
2022-10-30T11:39:20.189Z,415.97
2022-10-30T11:40:20.258Z,399.71
2022-10-30T11:41:20.171Z,402.99
2022-10-30T11:42:20.169Z,413.00
2022-10-30T11:43:20.142Z,392.21
2022-10-30T11:44:20.135Z,414.75
2022-10-30T11:45:20.127Z,414.63
2022-10-30T11:46:20.112Z,429.18
2022-10-30T11:47:20.116Z,411.81
2022-10-30T11:48:20.585Z,412.24
2022-10-30T11:49:20.076Z,396.45
2022-10-30T11:50:20.066Z,416.45
2022-10-30T11:51:20.137Z,407.21
2022-10-30T11:52:20.042Z,405.07
2022-10-30T11:53:20.050Z,408.67
2022-10-30T11:54:20.024Z,403.47
2022-10-30T11:55:20.013Z,383.44
2022-10-30T11:56:19.995Z,422.15
2022-10-30T11:57:20.007Z,407.56
2022-10-30T11:58:20.002Z,418.03
2022-10-30T11:59:19.967Z,402.13
2022-10-30T12:00:19.949Z,416.99
2022-10-30T12:01:19.971Z,426.41
2022-10-30T12:02:20.099Z,400.22
2022-10-30T12:03:19.924Z,418.66
2022-10-30T12:04:19.920Z,413.31
2022-10-30T12:05:19.919Z,416.71
2022-10-30T12:06:20.509Z,418.14
2022-10-30T12:07:19.884Z,417.28
2022-10-30T12:08:19.863Z,417.63
2022-10-30T12:09:19.866Z,420.03
2022-10-30T12:10:19.844Z,419.92
2022-10-30T12:11:19.827Z,421.87
2022-10-30T12:12:19.819Z,413.78
2022-10-30T12:13:19.824Z,409.29
2022-10-30T12:14:19.798Z,411.76
2022-10-30T12:15:19.810Z,417.27
2022-10-30T12:16:19.789Z,375.70
2022-10-30T12:17:19.766Z,409.05
2022-10-30T12:18:19.843Z,436.06
2022-10-30T12:19:19.763Z,397.14
2022-10-30T12:20:19.732Z,421.04
2022-10-30T12:21:19.723Z,417.54
2022-10-30T12:22:19.712Z,410.43
2022-10-30T12:23:19.732Z,436.17
2022-10-30T12:24:19.690Z,419.02
2022-10-30T12:25:19.700Z,419.74
2022-10-30T12:26:19.666Z,403.16
2022-10-30T12:27:22.444Z,412.21
2022-10-30T12:28:19.655Z,437.72
2022-10-30T12:29:19.638Z,419.15
2022-10-30T12:30:19.639Z,414.44
2022-10-30T12:31:20.103Z,397.72
2022-10-30T12:32:19.608Z,418.43
2022-10-30T12:33:19.600Z,410.24